createdAt,value
2023-02-24T00:02:22.461Z,63.20
2023-02-24T00:04:52.821Z,60.30
2023-02-24T00:07:23.109Z,55.43
2023-02-24T00:09:51.657Z,59.20
2023-02-24T00:12:20.844Z,58.93
2023-02-24T00:14:49.456Z,63.13
2023-02-24T00:17:18.252Z,55.43
2023-02-24T00:19:47.659Z,50.28
2023-02-24T00:22:16.271Z,39.20
2023-02-24T00:24:51.363Z,39.47
2023-02-24T00:27:19.863Z,38.50
2023-02-24T00:29:48.616Z,44.70
2023-02-24T00:32:17.289Z,49.93
2023-02-24T00:34:46.650Z,52.70
2023-02-24T00:37:15.687Z,63.67
2023-02-24T00:39:44.849Z,61.63
2023-02-24T00:42:15.174Z,56.17
2023-02-24T00:44:46.979Z,61.88
2023-02-24T00:47:17.707Z,48.97
2023-02-24T00:49:48.483Z,42.33
2023-02-24T00:52:19.238Z,40.30
2023-02-24T00:54:49.512Z,40.70
2023-02-24T00:57:21.703Z,49.97
2023-02-24T00:59:52.010Z,42.20
2023-02-24T01:02:21.657Z,41.73
2023-02-24T01:04:51.168Z,41.73
2023-02-24T01:07:19.852Z,39.93
2023-02-24T01:09:51.865Z,42.00
2023-02-24T01:12:41.152Z,49.50
2023-02-24T01:15:11.370Z,50.83
2023-02-24T01:17:39.970Z,44.60
2023-02-24T01:20:16.730Z,43.33
2023-02-24T01:22:46.716Z,50.10
2023-02-24T01:25:15.872Z,50.23
2023-02-24T01:27:46.059Z,50.90
2023-02-24T01:30:16.460Z,48.13
2023-02-24T01:32:47.021Z,51.77
2023-02-24T01:35:16.206Z,49.67
2023-02-24T01:37:45.853Z,47.13
2023-02-24T01:40:21.356Z,46.87
2023-02-24T01:42:51.951Z,45.77
2023-02-24T01:45:26.567Z,46.00
2023-02-24T01:47:58.123Z,48.57
2023-02-24T01:50:28.097Z,49.77
2023-02-24T01:53:01.524Z,43.93
2023-02-24T01:55:34.842Z,47.33
2023-02-24T01:58:10.910Z,47.07
2023-02-24T02:00:45.522Z,48.37
2023-02-24T02:03:29.071Z,44.70
2023-02-24T02:06:04.689Z,51.90
2023-02-24T02:08:57.305Z,44.77
2023-02-24T02:11:26.620Z,57.60
2023-02-24T02:13:57.153Z,50.67
2023-02-24T02:16:51.652Z,44.97
2023-02-24T02:19:59.971Z,54.07
2023-02-24T02:22:57.382Z,62.10
2023-02-24T02:25:35.326Z,61.13
2023-02-24T02:28:31.882Z,57.30
2023-02-24T02:31:36.781Z,50.83
2023-02-24T02:34:13.441Z,56.37
2023-02-24T02:37:02.356Z,51.23
2023-02-24T02:39:43.437Z,46.57
2023-02-24T02:42:19.117Z,45.53
2023-02-24T02:44:56.235Z,44.47
2023-02-24T02:47:33.088Z,42.57
2023-02-24T02:50:09.770Z,45.85
2023-02-24T02:52:42.515Z,41.00
2023-02-24T02:55:16.547Z,44.87
2023-02-24T02:57:49.102Z,44.40
2023-02-24T03:00:23.246Z,43.00
2023-02-24T03:02:56.295Z,47.80
2023-02-24T03:05:32.020Z,47.73
2023-02-24T03:08:04.985Z,46.43
2023-02-24T03:10:35.071Z,50.70
2023-02-24T03:13:07.495Z,46.43
2023-02-24T03:15:42.245Z,43.17
2023-02-24T03:18:19.007Z,45.93
2023-02-24T03:20:53.661Z,45.63
2023-02-24T03:23:27.581Z,46.47
2023-02-24T03:26:00.031Z,53.10
2023-02-24T03:28:35.798Z,43.87
2023-02-24T03:31:11.092Z,46.47
2023-02-24T03:33:45.014Z,44.23
2023-02-24T03:36:15.379Z,46.03
2023-02-24T03:38:49.546Z,46.17
2023-02-24T03:41:18.969Z,47.23
2023-02-24T03:43:50.829Z,45.50
2023-02-24T03:46:19.780Z,46.80
2023-02-24T03:48:51.943Z,42.90
2023-02-24T03:51:23.852Z,45.50
2023-02-24T03:54:05.834Z,43.53
2023-02-24T03:56:47.428Z,49.97
2023-02-24T03:59:28.103Z,50.90
2023-02-24T04:02:03.580Z,45.90
2023-02-24T04:04:39.124Z,45.97
2023-02-24T04:07:16.585Z,48.20
2023-02-24T04:09:52.306Z,52.50
2023-02-24T04:12:28.044Z,49.70
2023-02-24T04:14:59.865Z,47.03
2023-02-24T04:17:33.483Z,44.87
2023-02-24T04:20:13.001Z,46.90
2023-02-24T04:22:45.284Z,47.83
2023-02-24T04:25:15.944Z,45.27
2023-02-24T04:27:45.447Z,47.70
2023-02-24T04:30:15.286Z,46.47
2023-02-24T04:32:44.785Z,47.80
2023-02-24T04:35:17.252Z,48.93
2023-02-24T04:37:47.277Z,49.27
2023-02-24T04:40:18.914Z,49.27
2023-02-24T04:42:50.376Z,47.37
2023-02-24T04:45:21.814Z,49.83
2023-02-24T04:47:53.213Z,46.90
2023-02-24T04:50:26.246Z,48.17
2023-02-24T04:52:57.739Z,45.90
2023-02-24T04:55:29.726Z,48.80
2023-02-24T04:57:59.066Z,48.47
2023-02-24T05:00:33.661Z,47.63
2023-02-24T05:03:03.280Z,48.40
2023-02-24T05:05:33.852Z,51.47
2023-02-24T05:08:06.683Z,50.13
2023-02-24T05:10:39.123Z,52.23
2023-02-24T05:13:09.551Z,50.17
2023-02-24T05:15:42.097Z,52.63
2023-02-24T05:18:15.061Z,48.47
2023-02-24T05:21:11.049Z,49.77
2023-02-24T05:23:44.606Z,55.20
2023-02-24T05:26:17.283Z,53.50
2023-02-24T05:28:49.477Z,51.80
2023-02-24T05:31:20.978Z,49.00
2023-02-24T05:33:54.723Z,45.63
2023-02-24T05:36:25.664Z,52.97
2023-02-24T05:38:59.677Z,51.10
2023-02-24T05:41:32.870Z,49.00
2023-02-24T05:44:04.934Z,51.15
2023-02-24T05:46:38.870Z,51.57
2023-02-24T05:49:10.113Z,52.03
2023-02-24T05:51:43.649Z,53.20
2023-02-24T05:54:15.350Z,51.00
2023-02-24T05:56:44.782Z,56.70
2023-02-24T05:59:18.430Z,51.27
2023-02-24T06:01:47.250Z,51.63
2023-02-24T06:04:28.110Z,52.17
2023-02-24T06:06:56.734Z,55.00
2023-02-24T06:09:26.705Z,55.08
2023-02-24T06:11:55.418Z,55.23
2023-02-24T06:14:23.996Z,57.50
2023-02-24T06:16:52.710Z,57.37
2023-02-24T06:19:21.337Z,61.73
2023-02-24T06:21:52.834Z,62.57
2023-02-24T06:24:21.736Z,67.50
2023-02-24T06:26:53.954Z,65.27
2023-02-24T06:29:30.416Z,61.17
2023-02-24T06:31:59.637Z,60.37
2023-02-24T06:34:28.691Z,58.77
2023-02-24T06:36:58.804Z,63.73
2023-02-24T06:39:27.379Z,65.40
2023-02-24T06:42:04.135Z,67.00
2023-02-24T06:44:32.840Z,56.50
2023-02-24T06:47:01.934Z,68.60
2023-02-24T06:49:31.816Z,70.67
2023-02-24T06:52:01.213Z,70.37
2023-02-24T06:54:30.746Z,65.20
2023-02-24T06:57:00.863Z,63.10
2023-02-24T06:59:29.949Z,64.63
2023-02-24T07:02:00.298Z,69.10
2023-02-24T07:04:29.192Z,63.50
2023-02-24T07:07:03.549Z,70.80
2023-02-24T07:09:33.362Z,76.60
2023-02-24T07:12:04.843Z,69.30
2023-02-24T07:14:33.455Z,63.07
2023-02-24T07:17:02.108Z,59.20
2023-02-24T07:19:32.605Z,53.90
2023-02-24T07:22:03.910Z,53.83
2023-02-24T07:24:36.747Z,56.90
2023-02-24T07:27:09.708Z,52.80
2023-02-24T07:29:39.265Z,53.50
2023-02-24T07:32:10.053Z,51.80
2023-02-24T07:34:41.045Z,50.33
2023-02-24T07:37:10.449Z,48.63
2023-02-24T07:39:40.929Z,52.43
2023-02-24T07:42:13.580Z,52.90
2023-02-24T07:44:44.729Z,50.53
2023-02-24T07:47:13.805Z,48.00
2023-02-24T07:49:42.589Z,53.30
2023-02-24T07:52:11.831Z,46.37
2023-02-24T07:54:40.647Z,43.83
2023-02-24T07:57:14.117Z,44.50
2023-02-24T07:59:47.721Z,46.90
2023-02-24T08:02:17.149Z,42.60
2023-02-24T08:04:50.678Z,44.33
2023-02-24T08:07:25.290Z,41.80
2023-02-24T08:10:24.597Z,40.23
2023-02-24T08:12:56.034Z,42.00
2023-02-24T08:15:34.359Z,37.77
2023-02-24T08:18:03.454Z,40.27
2023-02-24T08:20:52.283Z,39.13
2023-02-24T08:23:23.717Z,43.13
2023-02-24T08:25:53.935Z,38.90
2023-02-24T08:28:27.098Z,40.43
2023-02-24T08:30:55.823Z,46.80
2023-02-24T08:33:28.593Z,47.60
2023-02-24T08:36:02.479Z,39.90
2023-02-24T08:38:42.285Z,41.70
2023-02-24T08:41:18.514Z,41.70
2023-02-24T08:43:49.991Z,38.20
2023-02-24T08:46:26.861Z,37.90
2023-02-24T08:48:57.052Z,41.77
2023-02-24T08:51:29.139Z,43.07
2023-02-24T08:54:00.275Z,47.53
2023-02-24T08:56:30.804Z,47.50
2023-02-24T08:59:05.913Z,49.03
2023-02-24T09:01:36.835Z,50.17
2023-02-24T09:04:09.224Z,47.17
2023-02-24T09:06:41.432Z,46.00
2023-02-24T09:09:21.072Z,46.57
2023-02-24T09:11:56.715Z,42.77
2023-02-24T09:14:29.511Z,43.60
2023-02-24T09:17:11.569Z,48.40
2023-02-24T09:20:02.384Z,44.97
2023-02-24T09:22:33.191Z,47.20
2023-02-24T09:25:19.191Z,41.20
2023-02-24T09:27:52.679Z,38.77
2023-02-24T09:30:37.629Z,39.03
2023-02-24T09:33:21.549Z,34.07
2023-02-24T09:35:53.097Z,36.27
2023-02-24T09:38:45.597Z,39.73
2023-02-24T09:41:32.135Z,41.93
2023-02-24T09:44:18.743Z,38.43
2023-02-24T09:46:55.058Z,39.50
2023-02-24T09:49:28.200Z,39.10
2023-02-24T09:52:09.155Z,35.50
2023-02-24T09:54:39.008Z,36.60
2023-02-24T09:57:17.227Z,37.27
2023-02-24T10:00:01.976Z,34.17
2023-02-24T10:03:00.241Z,36.27
2023-02-24T10:05:38.887Z,34.43
2023-02-24T10:08:18.160Z,35.27
2023-02-24T10:11:07.087Z,37.47
2023-02-24T10:13:38.939Z,36.57
2023-02-24T10:16:12.526Z,38.70
2023-02-24T10:18:48.630Z,38.90
2023-02-24T10:21:30.899Z,37.10
2023-02-24T10:24:19.638Z,35.73
2023-02-24T10:27:00.916Z,36.20
2023-02-24T10:29:55.718Z,35.50
2023-02-24T10:32:34.218Z,32.73
2023-02-24T10:35:06.392Z,31.90
2023-02-24T10:37:35.189Z,36.83
2023-02-24T10:40:10.807Z,37.20
2023-02-24T10:42:46.137Z,33.63
2023-02-24T10:45:23.977Z,34.97
2023-02-24T10:47:58.117Z,31.17
2023-02-24T10:50:32.802Z,33.30
2023-02-24T10:53:26.843Z,27.30
2023-02-24T10:56:15.479Z,26.70
2023-02-24T10:58:57.054Z,25.03
2023-02-24T11:01:43.915Z,29.53
2023-02-24T11:04:33.802Z,31.07
2023-02-24T11:07:12.003Z,31.93
2023-02-24T11:09:52.616Z,30.73
2023-02-24T11:12:41.101Z,29.13
2023-02-24T11:15:38.964Z,29.30
2023-02-24T11:18:10.711Z,30.67
2023-02-24T11:20:49.482Z,33.97
2023-02-24T11:23:24.919Z,38.57
2023-02-24T11:25:58.405Z,35.60
2023-02-24T11:28:53.640Z,33.67
2023-02-24T11:31:36.435Z,27.50
2023-02-24T11:34:11.565Z,23.23
2023-02-24T11:36:54.657Z,27.97
2023-02-24T11:39:53.552Z,33.30
2023-02-24T11:42:27.199Z,22.30
2023-02-24T11:45:01.314Z,24.33
2023-02-24T11:47:37.559Z,20.90
2023-02-24T11:50:29.973Z,22.30
2023-02-24T11:53:03.216Z,21.23
2023-02-24T11:55:39.468Z,25.83
2023-02-24T11:58:18.991Z,22.67
2023-02-24T12:00:55.306Z,26.87
2023-02-24T12:03:31.717Z,33.20
2023-02-24T12:06:14.117Z,25.43
2023-02-24T12:08:45.900Z,48.33
2023-02-24T12:11:22.723Z,44.90
2023-02-24T12:13:57.806Z,56.83
2023-02-24T12:16:33.603Z,109.77
2023-02-24T12:19:18.690Z,34.03
2023-02-24T12:21:54.131Z,25.90
2023-02-24T12:24:22.909Z,24.23
2023-02-24T12:27:03.665Z,26.87
2023-02-24T12:30:06.777Z,36.50
2023-02-24T12:32:57.752Z,29.97
2023-02-24T12:35:34.360Z,30.05
2023-02-24T12:38:19.870Z,36.57
2023-02-24T12:40:57.197Z,35.60
2023-02-24T12:43:34.449Z,37.23
2023-02-24T12:46:15.194Z,32.60
2023-02-24T12:49:12.431Z,31.37
2023-02-24T12:51:50.465Z,31.47
2023-02-24T12:54:30.730Z,27.77
2023-02-24T12:57:08.509Z,31.20
2023-02-24T12:59:41.615Z,25.90
2023-02-24T13:02:21.586Z,37.63
2023-02-24T13:04:59.952Z,36.20
2023-02-24T13:07:50.083Z,29.93
2023-02-24T13:10:31.605Z,29.67
2023-02-24T13:13:11.888Z,26.53
2023-02-24T13:15:52.163Z,24.00
2023-02-24T13:18:29.253Z,26.70
2023-02-24T13:21:11.387Z,24.73
2023-02-24T13:23:43.911Z,22.73
2023-02-24T13:26:12.580Z,23.30
2023-02-24T13:28:41.597Z,25.67
2023-02-24T13:31:16.670Z,23.70
2023-02-24T13:33:46.589Z,21.53
2023-02-24T13:36:20.730Z,21.70
2023-02-24T13:38:51.216Z,20.55
2023-02-24T13:41:42.030Z,27.30
2023-02-24T13:44:26.545Z,21.07
2023-02-24T13:47:23.789Z,19.30
2023-02-24T13:50:02.972Z,27.90
2023-02-24T13:52:45.929Z,30.87
2023-02-24T13:55:25.694Z,22.07
2023-02-24T13:58:29.212Z,20.53
2023-02-24T14:01:09.505Z,18.13
2023-02-24T14:03:41.917Z,20.43
2023-02-24T14:06:19.585Z,21.53
2023-02-24T14:08:55.064Z,19.53
2023-02-24T14:11:28.561Z,19.10
2023-02-24T14:13:59.086Z,19.63
2023-02-24T14:16:31.934Z,19.50
2023-02-24T14:19:03.741Z,19.07
2023-02-24T14:21:33.868Z,20.83
2023-02-24T14:24:05.527Z,24.13
2023-02-24T14:26:39.191Z,22.07
2023-02-24T14:29:10.320Z,22.53
2023-02-24T14:31:39.808Z,26.50
2023-02-24T14:34:19.903Z,23.33
2023-02-24T14:36:49.434Z,21.77
2023-02-24T14:39:20.860Z,22.47
2023-02-24T14:41:50.285Z,17.83
2023-02-24T14:44:25.162Z,25.83
2023-02-24T14:46:55.498Z,26.77
2023-02-24T14:49:28.535Z,28.30
2023-02-24T14:52:05.267Z,22.03
2023-02-24T14:54:44.885Z,19.93
2023-02-24T14:57:17.249Z,25.43
2023-02-24T14:59:49.979Z,22.60
2023-02-24T15:02:24.775Z,21.70
2023-02-24T15:04:58.456Z,22.93
2023-02-24T15:07:30.956Z,21.53
2023-02-24T15:10:00.660Z,21.80
2023-02-24T15:12:33.553Z,19.80
2023-02-24T15:15:08.262Z,21.57
2023-02-24T15:17:41.775Z,21.47
2023-02-24T15:20:35.107Z,22.77
2023-02-24T15:23:04.198Z,21.50
2023-02-24T15:25:44.005Z,23.03
2023-02-24T15:28:26.145Z,21.97
2023-02-24T15:31:03.440Z,22.60
2023-02-24T15:33:37.627Z,23.67
2023-02-24T15:36:12.647Z,21.97
2023-02-24T15:38:43.659Z,24.50
2023-02-24T15:41:13.944Z,26.03
2023-02-24T15:43:51.378Z,28.43
2023-02-24T15:46:29.498Z,24.13
2023-02-24T15:49:01.974Z,28.87
2023-02-24T15:51:38.451Z,25.90
2023-02-24T15:54:09.632Z,53.77
2023-02-24T15:56:41.899Z,53.40
2023-02-24T15:59:14.958Z,38.33
2023-02-24T16:01:43.583Z,28.07
2023-02-24T16:04:12.304Z,34.40
2023-02-24T16:06:54.292Z,31.93
2023-02-24T16:09:28.388Z,28.87
2023-02-24T16:11:58.030Z,25.37
2023-02-24T16:14:27.428Z,34.37
2023-02-24T16:16:56.288Z,32.87
2023-02-24T16:19:25.208Z,27.37
2023-02-24T16:21:55.429Z,23.60
2023-02-24T16:24:24.098Z,27.07
2023-02-24T16:26:52.721Z,23.77
2023-02-24T16:29:21.348Z,20.90
2023-02-24T16:31:50.096Z,19.70
2023-02-24T16:34:19.175Z,17.37
2023-02-24T16:36:48.453Z,18.67
2023-02-24T16:39:19.168Z,22.33
2023-02-24T16:41:47.695Z,18.23
2023-02-24T16:44:16.311Z,16.90
2023-02-24T16:46:46.336Z,20.73
2023-02-24T16:49:19.600Z,15.13
2023-02-24T16:51:48.380Z,14.53
2023-02-24T16:54:22.068Z,16.00
2023-02-24T16:56:51.003Z,18.20
2023-02-24T16:59:19.627Z,16.63
2023-02-24T17:01:48.217Z,18.77
2023-02-24T17:04:16.911Z,18.40
2023-02-24T17:06:45.570Z,22.43
2023-02-24T17:09:16.029Z,24.20
2023-02-24T17:11:46.252Z,23.00
2023-02-24T17:14:20.155Z,21.77
2023-02-24T17:16:49.300Z,18.53
2023-02-24T17:19:17.931Z,18.37
2023-02-24T17:21:46.991Z,16.83
2023-02-24T17:24:17.294Z,20.40
2023-02-24T17:26:48.344Z,18.53
2023-02-24T17:29:16.951Z,19.33
2023-02-24T17:31:45.701Z,20.53
2023-02-24T17:34:14.270Z,19.90
2023-02-24T17:36:42.809Z,24.20
2023-02-24T17:39:11.518Z,22.10
2023-02-24T17:41:40.244Z,20.73
2023-02-24T17:44:10.203Z,23.37
2023-02-24T17:46:38.947Z,24.37
2023-02-24T17:49:07.547Z,25.43
2023-02-24T17:51:36.228Z,22.90
2023-02-24T17:54:05.168Z,23.83
2023-02-24T17:56:33.753Z,23.77
2023-02-24T17:59:02.335Z,23.80
2023-02-24T18:01:32.381Z,24.37
2023-02-24T18:04:00.961Z,26.03
2023-02-24T18:06:29.585Z,27.37
2023-02-24T18:08:58.416Z,28.90
2023-02-24T18:11:27.049Z,28.70
2023-02-24T18:14:00.362Z,24.80
2023-02-24T18:16:30.268Z,27.70
2023-02-24T18:19:00.399Z,23.00
2023-02-24T18:21:28.985Z,26.80
2023-02-24T18:23:57.636Z,27.70
2023-02-24T18:26:26.650Z,41.90
2023-02-24T18:28:56.743Z,34.10
2023-02-24T18:31:28.220Z,32.97
2023-02-24T18:33:59.838Z,36.57
2023-02-24T18:36:28.630Z,32.80
2023-02-24T18:38:58.847Z,24.30
2023-02-24T18:41:27.580Z,31.00
2023-02-24T18:43:59.351Z,34.97
2023-02-24T18:46:29.130Z,41.57
2023-02-24T18:48:59.257Z,45.00
2023-02-24T18:51:29.284Z,35.60
2023-02-24T18:54:00.479Z,45.57
2023-02-24T18:56:31.293Z,40.03
2023-02-24T18:59:01.165Z,45.07
2023-02-24T19:01:31.719Z,53.73
2023-02-24T19:04:02.528Z,34.43
2023-02-24T19:06:33.652Z,27.60
2023-02-24T19:09:07.116Z,27.73
2023-02-24T19:11:36.349Z,26.17
2023-02-24T19:14:05.825Z,24.27
2023-02-24T19:16:35.208Z,29.73
2023-02-24T19:19:05.946Z,26.23
2023-02-24T19:21:35.966Z,31.70
2023-02-24T19:24:08.384Z,39.00
2023-02-24T19:26:37.236Z,34.27
2023-02-24T19:29:06.330Z,28.13
2023-02-24T19:31:35.577Z,31.70
2023-02-24T19:34:08.276Z,34.30
2023-02-24T19:36:38.091Z,42.83
2023-02-24T19:39:10.438Z,39.93
2023-02-24T19:41:39.167Z,58.43
2023-02-24T19:44:07.749Z,48.37
2023-02-24T19:46:36.647Z,51.63
2023-02-24T19:49:06.878Z,43.00
2023-02-24T19:51:35.604Z,51.43
2023-02-24T19:54:06.287Z,50.40
2023-02-24T19:56:37.011Z,51.63
2023-02-24T19:59:07.860Z,54.73
2023-02-24T20:01:36.805Z,49.93
2023-02-24T20:04:07.264Z,42.23
2023-02-24T20:06:37.949Z,42.83
2023-02-24T20:09:07.442Z,43.23
2023-02-24T20:11:37.878Z,48.10
2023-02-24T20:14:07.080Z,47.07
2023-02-24T20:16:37.424Z,44.93
2023-02-24T20:19:09.492Z,42.43
2023-02-24T20:21:39.934Z,41.50
2023-02-24T20:24:13.620Z,41.00
2023-02-24T20:26:43.438Z,38.57
2023-02-24T20:29:12.558Z,39.27
2023-02-24T20:31:41.248Z,42.53
2023-02-24T20:34:11.833Z,44.77
2023-02-24T20:36:42.065Z,39.83
2023-02-24T20:39:12.634Z,38.60
2023-02-24T20:41:42.341Z,41.83
2023-02-24T20:44:11.439Z,42.53
2023-02-24T20:46:41.962Z,47.97
2023-02-24T20:49:15.142Z,42.60
2023-02-24T20:51:44.805Z,47.10
2023-02-24T20:54:14.811Z,38.43
2023-02-24T20:56:44.895Z,42.30
2023-02-24T20:59:15.843Z,38.67
2023-02-24T21:01:47.130Z,34.80
2023-02-24T21:04:20.880Z,29.07
2023-02-24T21:06:51.838Z,28.17
2023-02-24T21:09:20.588Z,30.00
2023-02-24T21:11:49.192Z,28.73
2023-02-24T21:14:18.442Z,26.07
2023-02-24T21:16:47.315Z,29.13
2023-02-24T21:19:18.226Z,28.47
2023-02-24T21:21:46.799Z,30.80
2023-02-24T21:24:15.338Z,30.33
2023-02-24T21:26:44.055Z,31.57
2023-02-24T21:29:12.730Z,28.60
2023-02-24T21:31:42.925Z,31.10
2023-02-24T21:34:12.670Z,35.70
2023-02-24T21:36:42.620Z,36.43
2023-02-24T21:39:14.824Z,29.83
2023-02-24T21:41:43.765Z,32.13
2023-02-24T21:44:14.436Z,32.37
2023-02-24T21:46:43.199Z,35.17
2023-02-24T21:49:14.569Z,33.03
2023-02-24T21:51:45.998Z,35.70
2023-02-24T21:54:14.643Z,33.37
2023-02-24T21:56:43.662Z,36.23
2023-02-24T21:59:12.515Z,34.40
2023-02-24T22:01:43.269Z,33.00
2023-02-24T22:04:13.787Z,29.03
2023-02-24T22:06:44.952Z,32.37
2023-02-24T22:09:19.617Z,29.50
2023-02-24T22:11:50.181Z,30.10
2023-02-24T22:14:19.194Z,30.30
2023-02-24T22:16:47.716Z,33.60
2023-02-24T22:19:16.572Z,31.17
2023-02-24T22:21:46.894Z,29.33
2023-02-24T22:24:19.412Z,32.67
2023-02-24T22:26:48.159Z,27.87
2023-02-24T22:29:16.738Z,30.40
2023-02-24T22:31:49.603Z,28.33
2023-02-24T22:34:18.502Z,32.97
2023-02-24T22:36:48.578Z,30.53
2023-02-24T22:39:17.652Z,37.37
2023-02-24T22:41:47.746Z,29.93
2023-02-24T22:44:19.640Z,28.43
2023-02-24T22:46:48.618Z,34.00
2023-02-24T22:49:17.508Z,32.93
2023-02-24T22:51:47.544Z,28.90
2023-02-24T22:54:16.518Z,28.03
2023-02-24T22:56:45.426Z,31.10
2023-02-24T22:59:14.318Z,41.38
2023-02-24T23:01:44.162Z,30.07
2023-02-24T23:04:17.251Z,32.07
2023-02-24T23:06:48.308Z,33.80
2023-02-24T23:09:20.097Z,34.03
2023-02-24T23:11:49.041Z,33.07
2023-02-24T23:14:17.660Z,31.57
2023-02-24T23:16:47.431Z,32.87
2023-02-24T23:19:18.295Z,36.28
2023-02-24T23:21:50.403Z,32.43
2023-02-24T23:24:20.292Z,38.40
2023-02-24T23:26:51.484Z,41.77
2023-02-24T23:29:20.360Z,38.63
2023-02-24T23:31:49.335Z,49.37
2023-02-24T23:34:18.110Z,51.27
2023-02-24T23:36:48.789Z,46.07
2023-02-24T23:39:20.554Z,39.30
2023-02-24T23:41:49.665Z,35.07
2023-02-24T23:44:18.227Z,32.57
2023-02-24T23:46:46.813Z,39.03
2023-02-24T23:49:16.085Z,38.30
2023-02-24T23:51:48.971Z,30.47
2023-02-24T23:54:19.280Z,31.50
2023-02-24T23:56:48.201Z,28.83
2023-02-24T23:59:16.817Z,29.87
